sensor_id;sensor_type;location;lat;lon;timestamp;pressure;altitude;pressure_sealevel;temperature;humidity
6453;BME280;3259;51.080;13.712;2023-04-24T00:02:20;99090.41;;;25.87;40.39
6453;BME280;3259;51.080;13.712;2023-04-24T00:05:11;99081.91;;;25.79;40.72
6453;BME280;3259;51.080;13.712;2023-04-24T00:08:00;99081.72;;;25.92;40.26
6453;BME280;3259;51.080;13.712;2023-04-24T00:10:49;99087.13;;;25.85;40.54
6453;BME280;3259;51.080;13.712;2023-04-24T00:13:39;99090.78;;;25.91;40.77
6453;BME280;3259;51.080;13.712;2023-04-24T00:16:28;99079.00;;;25.80;40.92
6453;BME280;3259;51.080;13.712;2023-04-24T00:19:16;99095.75;;;25.87;40.61
6453;BME280;3259;51.080;13.712;2023-04-24T00:22:09;99115.28;;;25.99;40.74
6453;BME280;3259;51.080;13.712;2023-04-24T00:24:58;99100.50;;;25.96;40.63
6453;BME280;3259;51.080;13.712;2023-04-24T00:27:46;99100.00;;;25.77;41.14
6453;BME280;3259;51.080;13.712;2023-04-24T00:30:35;99108.41;;;25.69;41.15
6453;BME280;3259;51.080;13.712;2023-04-24T00:33:24;99095.16;;;25.74;40.97
6453;BME280;3259;51.080;13.712;2023-04-24T00:36:13;99094.56;;;25.72;40.91
6453;BME280;3259;51.080;13.712;2023-04-24T00:39:03;99090.28;;;25.71;41.00
6453;BME280;3259;51.080;13.712;2023-04-24T00:41:52;99103.06;;;25.69;40.96
6453;BME280;3259;51.080;13.712;2023-04-24T00:44:40;99101.53;;;25.73;41.26
6453;BME280;3259;51.080;13.712;2023-04-24T00:47:29;99095.63;;;25.71;40.99
6453;BME280;3259;51.080;13.712;2023-04-24T00:50:18;99096.09;;;25.68;41.05
6453;BME280;3259;51.080;13.712;2023-04-24T00:53:09;99092.03;;;25.65;41.31
6453;BME280;3259;51.080;13.712;2023-04-24T00:55:59;99102.81;;;25.70;41.05
6453;BME280;3259;51.080;13.712;2023-04-24T00:58:49;99092.03;;;25.65;41.05
6453;BME280;3259;51.080;13.712;2023-04-24T01:01:38;99090.03;;;25.61;41.13
6453;BME280;3259;51.080;13.712;2023-04-24T01:04:29;99083.31;;;25.70;40.78
6453;BME280;3259;51.080;13.712;2023-04-24T01:07:19;99087.25;;;25.79;40.76
6453;BME280;3259;51.080;13.712;2023-04-24T01:10:09;99080.63;;;25.70;40.99
6453;BME280;3259;51.080;13.712;2023-04-24T01:12:59;99084.34;;;25.69;40.93
6453;BME280;3259;51.080;13.712;2023-04-24T01:15:48;99088.53;;;25.65;41.04
6453;BME280;3259;51.080;13.712;2023-04-24T01:18:37;99095.97;;;25.63;41.17
6453;BME280;3259;51.080;13.712;2023-04-24T01:21:26;99093.63;;;25.66;41.37
6453;BME280;3259;51.080;13.712;2023-04-24T01:24:17;99085.84;;;25.65;41.16
6453;BME280;3259;51.080;13.712;2023-04-24T01:27:06;99087.59;;;25.59;41.24
6453;BME280;3259;51.080;13.712;2023-04-24T01:29:55;99098.63;;;25.63;40.78
6453;BME280;3259;51.080;13.712;2023-04-24T01:32:45;99086.78;;;25.59;41.03
6453;BME280;3259;51.080;13.712;2023-04-24T01:35:34;99088.41;;;25.60;41.26
6453;BME280;3259;51.080;13.712;2023-04-24T01:38:24;99095.28;;;25.79;40.66
6453;BME280;3259;51.080;13.712;2023-04-24T01:41:14;99099.34;;;25.70;41.14
6453;BME280;3259;51.080;13.712;2023-04-24T01:44:02;99092.72;;;25.61;40.90
6453;BME280;3259;51.080;13.712;2023-04-24T01:46:51;99092.25;;;25.64;40.72
6453;BME280;3259;51.080;13.712;2023-04-24T01:49:41;99089.13;;;25.67;40.58
6453;BME280;3259;51.080;13.712;2023-04-24T01:52:30;99087.03;;;25.69;40.89
6453;BME280;3259;51.080;13.712;2023-04-24T01:55:20;99082.72;;;25.79;40.32
6453;BME280;3259;51.080;13.712;2023-04-24T01:58:10;99084.00;;;25.77;40.51
6453;BME280;3259;51.080;13.712;2023-04-24T02:00:59;99081.78;;;25.74;40.48
6453;BME280;3259;51.080;13.712;2023-04-24T02:03:48;99088.63;;;25.81;40.29
6453;BME280;3259;51.080;13.712;2023-04-24T02:06:37;99084.22;;;25.64;40.94
6453;BME280;3259;51.080;13.712;2023-04-24T02:09:26;99086.09;;;25.75;40.46
6453;BME280;3259;51.080;13.712;2023-04-24T02:12:15;99080.25;;;25.77;40.36
6453;BME280;3259;51.080;13.712;2023-04-24T02:15:06;99093.19;;;25.81;40.42
6453;BME280;3259;51.080;13.712;2023-04-24T02:17:54;99088.53;;;25.65;40.91
6453;BME280;3259;51.080;13.712;2023-04-24T02:20:43;99085.41;;;25.68;40.65
6453;BME280;3259;51.080;13.712;2023-04-24T02:23:32;99084.22;;;25.64;40.52
6453;BME280;3259;51.080;13.712;2023-04-24T02:26:20;99079.84;;;25.58;41.10
6453;BME280;3259;51.080;13.712;2023-04-24T02:29:09;99092.81;;;25.66;41.07
6453;BME280;3259;51.080;13.712;2023-04-24T02:31:59;99079.94;;;25.63;40.79
6453;BME280;3259;51.080;13.712;2023-04-24T02:34:48;99087.94;;;25.63;41.14
6453;BME280;3259;51.080;13.712;2023-04-24T02:37:36;99081.34;;;25.65;41.06
6453;BME280;3259;51.080;13.712;2023-04-24T02:40:25;99087.59;;;25.59;41.08
6453;BME280;3259;51.080;13.712;2023-04-24T02:43:14;99082.97;;;25.55;41.19
6453;BME280;3259;51.080;13.712;2023-04-24T02:46:03;99084.34;;;25.57;40.95
6453;BME280;3259;51.080;13.712;2023-04-24T02:48:53;99086.78;;;25.59;41.35
6453;BME280;3259;51.080;13.712;2023-04-24T02:51:46;99093.03;;;25.53;41.39
6453;BME280;3259;51.080;13.712;2023-04-24T02:54:34;99079.94;;;25.51;41.32
6453;BME280;3259;51.080;13.712;2023-04-24T02:57:23;99083.88;;;25.49;41.28
6453;BME280;3259;51.080;13.712;2023-04-24T03:00:12;99078.31;;;25.50;41.45
6453;BME280;3259;51.080;13.712;2023-04-24T03:03:02;99069.69;;;25.48;40.89
6453;BME280;3259;51.080;13.712;2023-04-24T03:05:53;99075.41;;;25.52;41.35
6453;BME280;3259;51.080;13.712;2023-04-24T03:08:42;99073.31;;;25.54;41.21
6453;BME280;3259;51.080;13.712;2023-04-24T03:11:31;99071.00;;;25.57;41.27
6453;BME280;3259;51.080;13.712;2023-04-24T03:14:19;99075.28;;;25.58;41.11
6453;BME280;3259;51.080;13.712;2023-04-24T03:17:08;99071.25;;;25.56;41.48
6453;BME280;3259;51.080;13.712;2023-04-24T03:19:57;99068.22;;;25.52;41.08
6453;BME280;3259;51.080;13.712;2023-04-24T03:22:47;99063.81;;;25.58;41.09
6453;BME280;3259;51.080;13.712;2023-04-24T03:25:35;99073.91;;;25.67;40.93
6453;BME280;3259;51.080;13.712;2023-04-24T03:28:24;99070.53;;;25.72;40.74
6453;BME280;3259;51.080;13.712;2023-04-24T03:31:13;99064.16;;;25.61;40.97
6453;BME280;3259;51.080;13.712;2023-04-24T03:34:02;99076.09;;;25.59;40.73
6453;BME280;3259;51.080;13.712;2023-04-24T03:36:50;99075.97;;;25.54;40.85
6453;BME280;3259;51.080;13.712;2023-04-24T03:39:41;99078.22;;;25.57;40.86
6453;BME280;3259;51.080;13.712;2023-04-24T03:42:31;99083.53;;;25.57;40.92
6453;BME280;3259;51.080;13.712;2023-04-24T03:45:19;99086.44;;;25.55;41.09
6453;BME280;3259;51.080;13.712;2023-04-24T03:48:08;99090.03;;;25.61;40.96
6453;BME280;3259;51.080;13.712;2023-04-24T03:50:57;99089.56;;;25.64;40.64
6453;BME280;3259;51.080;13.712;2023-04-24T03:53:45;99094.47;;;25.67;40.75
6453;BME280;3259;51.080;13.712;2023-04-24T03:56:35;99092.25;;;25.64;40.47
6453;BME280;3259;51.080;13.712;2023-04-24T03:59:24;99099.34;;;25.70;40.02
6453;BME280;3259;51.080;13.712;2023-04-24T04:02:13;99101.44;;;25.68;39.87
6453;BME280;3259;51.080;13.712;2023-04-24T04:05:02;99114.53;;;25.69;39.76
6453;BME280;3259;51.080;13.712;2023-04-24T04:07:50;99111.41;;;25.72;39.59
6453;BME280;3259;51.080;13.712;2023-04-24T04:10:39;99111.41;;;25.72;40.06
6453;BME280;3259;51.080;13.712;2023-04-24T04:13:29;99116.97;;;25.71;39.37
6453;BME280;3259;51.080;13.712;2023-04-24T04:16:18;99108.03;;;25.65;39.68
6453;BME280;3259;51.080;13.712;2023-04-24T04:19:07;99105.59;;;25.75;39.59
6453;BME280;3259;51.080;13.712;2023-04-24T04:21:55;99108.97;;;25.71;39.33
6453;BME280;3259;51.080;13.712;2023-04-24T04:24:44;99116.50;;;25.74;38.97
6453;BME280;3259;51.080;13.712;2023-04-24T04:27:33;99112.78;;;25.75;38.82
6453;BME280;3259;51.080;13.712;2023-04-24T04:30:23;99111.66;;;25.71;39.05
6453;BME280;3259;51.080;13.712;2023-04-24T04:33:12;99112.13;;;25.68;39.35
6453;BME280;3259;51.080;13.712;2023-04-24T04:36:01;99110.25;;;25.57;39.87
6453;BME280;3259;51.080;13.712;2023-04-24T04:38:50;99114.88;;;25.50;39.85
6453;BME280;3259;51.080;13.712;2023-04-24T04:41:39;99112.31;;;25.43;40.07
6453;BME280;3259;51.080;13.712;2023-04-24T04:44:28;99107.44;;;25.52;40.02
6453;BME280;3259;51.080;13.712;2023-04-24T04:47:20;99107.56;;;25.68;39.35
6453;BME280;3259;51.080;13.712;2023-04-24T04:50:10;99111.75;;;25.64;39.31
6453;BME280;3259;51.080;13.712;2023-04-24T04:52:58;99102.09;;;25.52;39.53
6453;BME280;3259;51.080;13.712;2023-04-24T04:55:47;99116.50;;;25.51;39.62
6453;BME280;3259;51.080;13.712;2023-04-24T04:58:36;99107.44;;;25.52;39.87
6453;BME280;3259;51.080;13.712;2023-04-24T05:01:24;99120.34;;;25.55;39.53
6453;BME280;3259;51.080;13.712;2023-04-24T05:04:15;99120.69;;;25.47;39.71
6453;BME280;3259;51.080;13.712;2023-04-24T05:07:04;99118.13;;;25.52;39.71
6453;BME280;3259;51.080;13.712;2023-04-24T05:09:53;99116.03;;;25.54;39.46
6453;BME280;3259;51.080;13.712;2023-04-24T05:12:42;99118.22;;;25.45;39.64
6453;BME280;3259;51.080;13.712;2023-04-24T05:15:32;99120.69;;;25.47;39.41
6453;BME280;3259;51.080;13.712;2023-04-24T05:18:21;99122.88;;;25.38;39.84
6453;BME280;3259;51.080;13.712;2023-04-24T05:21:11;99119.50;;;25.43;39.59
6453;BME280;3259;51.080;13.712;2023-04-24T05:23:59;99125.69;;;25.55;39.58
6453;BME280;3259;51.080;13.712;2023-04-24T05:26:48;99128.69;;;25.58;39.49
6453;BME280;3259;51.080;13.712;2023-04-24T05:29:37;99127.53;;;25.66;38.94
6453;BME280;3259;51.080;13.712;2023-04-24T05:32:25;99126.53;;;25.67;39.01
6453;BME280;3259;51.080;13.712;2023-04-24T05:35:15;99121.63;;;25.64;39.38
6453;BME280;3259;51.080;13.712;2023-04-24T05:38:05;99126.53;;;25.67;39.13
6453;BME280;3259;51.080;13.712;2023-04-24T05:40:53;99118.25;;;25.57;39.58
6453;BME280;3259;51.080;13.712;2023-04-24T05:43:42;99121.38;;;25.54;39.34
6453;BME280;3259;51.080;13.712;2023-04-24T05:46:31;99116.50;;;25.51;39.71
6453;BME280;3259;51.080;13.712;2023-04-24T05:49:20;99122.81;;;25.68;39.81
6453;BME280;3259;51.080;13.712;2023-04-24T05:52:09;99117.91;;;25.65;40.30
6453;BME280;3259;51.080;13.712;2023-04-24T05:54:59;99123.94;;;25.72;40.06
6453;BME280;3259;51.080;13.712;2023-04-24T05:57:47;99132.19;;;25.59;40.48
6453;BME280;3259;51.080;13.712;2023-04-24T06:00:36;99134.88;;;25.59;40.29
6453;BME280;3259;51.080;13.712;2023-04-24T06:03:26;99138.31;;;25.59;40.21
6453;BME280;3259;51.080;13.712;2023-04-24T06:06:16;99134.88;;;25.59;40.02
6453;BME280;3259;51.080;13.712;2023-04-24T06:09:08;99140.88;;;25.66;40.01
6453;BME280;3259;51.080;13.712;2023-04-24T06:11:59;99133.72;;;25.55;40.28
6453;BME280;3259;51.080;13.712;2023-04-24T06:14:48;99136.97;;;25.57;40.03
6453;BME280;3259;51.080;13.712;2023-04-24T06:17:37;99131.63;;;25.57;40.20
6453;BME280;3259;51.080;13.712;2023-04-24T06:20:26;99131.38;;;25.70;39.97
6453;BME280;3259;51.080;13.712;2023-04-24T06:23:14;99137.09;;;25.73;39.71
6453;BME280;3259;51.080;13.712;2023-04-24T06:26:04;99132.06;;;25.77;39.80
6453;BME280;3259;51.080;13.712;2023-04-24T06:28:54;99134.31;;;25.80;39.43
6453;BME280;3259;51.080;13.712;2023-04-24T06:31:43;99136.16;;;25.79;38.90
6453;BME280;3259;51.080;13.712;2023-04-24T06:34:31;99133.81;;;25.83;38.81
6453;BME280;3259;51.080;13.712;2023-04-24T06:37:21;99148.22;;;25.82;38.75
6453;BME280;3259;51.080;13.712;2023-04-24T06:40:10;99142.56;;;25.89;38.04
6453;BME280;3259;51.080;13.712;2023-04-24T06:42:59;99146.28;;;25.88;37.89
6453;BME280;3259;51.080;13.712;2023-04-24T06:45:50;99143.47;;;25.83;37.32
6453;BME280;3259;51.080;13.712;2023-04-24T06:48:39;99148.38;;;25.87;37.51
6453;BME280;3259;51.080;13.712;2023-04-24T06:51:28;99147.19;;;25.83;37.62
6453;BME280;3259;51.080;13.712;2023-04-24T06:54:19;99148.09;;;25.77;37.09
6453;BME280;3259;51.080;13.712;2023-04-24T06:57:09;99144.38;;;25.77;37.15
6453;BME280;3259;51.080;13.712;2023-04-24T06:59:58;99145.69;;;25.75;36.83
6453;BME280;3259;51.080;13.712;2023-04-24T07:02:48;99144.28;;;25.73;36.75
6453;BME280;3259;51.080;13.712;2023-04-24T07:05:37;99146.13;;;25.72;36.52
6453;BME280;3259;51.080;13.712;2023-04-24T07:08:26;99148.22;;;25.70;36.67
6453;BME280;3259;51.080;13.712;2023-04-24T07:11:17;99146.38;;;25.71;36.99
6453;BME280;3259;51.080;13.712;2023-04-24T07:14:07;99144.84;;;25.75;37.32
6453;BME280;3259;51.080;13.712;2023-04-24T07:16:57;99143.00;;;25.75;37.17
6453;BME280;3259;51.080;13.712;2023-04-24T07:19:47;99148.00;;;25.72;36.93
6453;BME280;3259;51.080;13.712;2023-04-24T07:22:35;99155.06;;;25.77;36.64
6453;BME280;3259;51.080;13.712;2023-04-24T07:25:24;99158.78;;;25.77;36.78
6453;BME280;3259;51.080;13.712;2023-04-24T07:28:13;99159.97;;;25.81;36.58
6453;BME280;3259;51.080;13.712;2023-04-24T07:31:03;99155.06;;;25.77;36.15
6453;BME280;3259;51.080;13.712;2023-04-24T07:33:51;99157.03;;;25.82;36.37
6453;BME280;3259;51.080;13.712;2023-04-24T07:36:42;99164.84;;;25.83;36.66
6453;BME280;3259;51.080;13.712;2023-04-24T07:39:31;99158.78;;;25.77;36.15
6453;BME280;3259;51.080;13.712;2023-04-24T07:42:19;99168.56;;;25.83;36.53
6453;BME280;3259;51.080;13.712;2023-04-24T07:45:08;99166.47;;;25.84;36.20
6453;BME280;3259;51.080;13.712;2023-04-24T07:47:57;99167.50;;;25.83;36.50
6453;BME280;3259;51.080;13.712;2023-04-24T07:50:46;99159.97;;;25.81;36.62
6453;BME280;3259;51.080;13.712;2023-04-24T07:53:36;99169.13;;;25.84;36.56
6453;BME280;3259;51.080;13.712;2023-04-24T07:56:25;99161.88;;;25.92;35.89
6453;BME280;3259;51.080;13.712;2023-04-24T07:59:14;99169.59;;;25.82;36.00
6453;BME280;3259;51.080;13.712;2023-04-24T08:02:03;99172.41;;;25.87;35.49
6453;BME280;3259;51.080;13.712;2023-04-24T08:04:53;99173.47;;;25.86;35.56
6453;BME280;3259;51.080;13.712;2023-04-24T08:07:43;99168.25;;;25.91;35.50
6453;BME280;3259;51.080;13.712;2023-04-24T08:10:34;99158.34;;;25.80;35.26
6453;BME280;3259;51.080;13.712;2023-04-24T08:13:23;99160.88;;;25.75;35.23
6453;BME280;3259;51.080;13.712;2023-04-24T08:16:12;99169.47;;;25.77;35.43
6453;BME280;3259;51.080;13.712;2023-04-24T08:19:01;99173.91;;;25.83;35.47
6453;BME280;3259;51.080;13.712;2023-04-24T08:21:50;99173.53;;;25.79;35.55
6453;BME280;3259;51.080;13.712;2023-04-24T08:24:38;99179.25;;;25.83;35.65
6453;BME280;3259;51.080;13.712;2023-04-24T08:27:29;99178.19;;;25.83;35.59
6453;BME280;3259;51.080;13.712;2023-04-24T08:30:20;99177.91;;;25.92;35.52
6453;BME280;3259;51.080;13.712;2023-04-24T08:33:09;99184.16;;;25.86;34.55
6453;BME280;3259;51.080;13.712;2023-04-24T08:35:57;99171.81;;;25.84;34.82
6453;BME280;3259;51.080;13.712;2023-04-24T08:38:47;99173.47;;;25.86;34.57
6453;BME280;3259;51.080;13.712;2023-04-24T08:41:37;99181.25;;;25.87;34.51
6453;BME280;3259;51.080;13.712;2023-04-24T08:44:27;99178.22;;;25.95;34.21
6453;BME280;3259;51.080;13.712;2023-04-24T08:47:16;99184.88;;;25.92;34.22
6453;BME280;3259;51.080;13.712;2023-04-24T08:50:07;99185.28;;;25.78;34.43
6453;BME280;3259;51.080;13.712;2023-04-24T08:53:01;99179.25;;;25.83;34.55
6453;BME280;3259;51.080;13.712;2023-04-24T08:55:51;99178.34;;;25.88;34.45
6453;BME280;3259;51.080;13.712;2023-04-24T08:58:40;99179.38;;;25.88;34.41
6453;BME280;3259;51.080;13.712;2023-04-24T09:01:32;99187.59;;;25.75;34.53
6453;BME280;3259;51.080;13.712;2023-04-24T09:04:22;99184.22;;;25.79;34.72
6453;BME280;3259;51.080;13.712;2023-04-24T09:07:14;99190.72;;;25.83;33.73
6453;BME280;3259;51.080;13.712;2023-04-24T09:10:07;99182.59;;;25.78;33.25
6453;BME280;3259;51.080;13.712;2023-04-24T09:12:56;99181.78;;;25.77;33.47
6453;BME280;3259;51.080;13.712;2023-04-24T09:15:45;99184.59;;;25.83;33.56
6453;BME280;3259;51.080;13.712;2023-04-24T09:18:35;99189.47;;;25.74;33.39
6453;BME280;3259;51.080;13.712;2023-04-24T09:21:24;99191.31;;;25.74;33.78
6453;BME280;3259;51.080;13.712;2023-04-24T09:24:21;99194.13;;;25.79;33.38
6453;BME280;3259;51.080;13.712;2023-04-24T09:27:11;99187.13;;;25.77;33.41
6453;BME280;3259;51.080;13.712;2023-04-24T09:30:02;99188.38;;;25.64;33.53
6453;BME280;3259;51.080;13.712;2023-04-24T09:33:09;99181.56;;;25.68;33.83
6453;BME280;3259;51.080;13.712;2023-04-24T09:36:00;99187.69;;;25.68;33.79
6453;BME280;3259;51.080;13.712;2023-04-24T09:38:55;99188.28;;;25.70;33.90
6453;BME280;3259;51.080;13.712;2023-04-24T09:41:47;99182.72;;;25.72;33.94
6453;BME280;3259;51.080;13.712;2023-04-24T09:44:36;99181.09;;;25.71;33.89
6453;BME280;3259;51.080;13.712;2023-04-24T09:47:25;99188.97;;;25.66;34.09
6453;BME280;3259;51.080;13.712;2023-04-24T09:50:16;99190.94;;;25.70;33.73
6453;BME280;3259;51.080;13.712;2023-04-24T09:53:09;99188.97;;;25.66;33.85
6453;BME280;3259;51.080;13.712;2023-04-24T09:56:02;99184.09;;;25.63;33.85
6453;BME280;3259;51.080;13.712;2023-04-24T09:58:51;99178.63;;;25.69;33.65
6453;BME280;3259;51.080;13.712;2023-04-24T10:01:40;99177.84;;;25.69;33.71
6453;BME280;3259;51.080;13.712;2023-04-24T10:04:31;99181.09;;;25.71;33.89
6453;BME280;3259;51.080;13.712;2023-04-24T10:07:20;99182.72;;;25.72;33.64
6453;BME280;3259;51.080;13.712;2023-04-24T10:10:11;99182.59;;;25.67;33.77
6453;BME280;3259;51.080;13.712;2023-04-24T10:13:00;99179.56;;;25.75;33.71
6453;BME280;3259;51.080;13.712;2023-04-24T10:15:49;99175.75;;;25.71;33.13
6453;BME280;3259;51.080;13.712;2023-04-24T10:18:39;99172.13;;;25.65;33.32
6453;BME280;3259;51.080;13.712;2023-04-24T10:21:31;99175.50;;;25.61;33.12
6453;BME280;3259;51.080;13.712;2023-04-24T10:24:20;99175.03;;;25.64;33.60
6453;BME280;3259;51.080;13.712;2023-04-24T10:27:11;99170.06;;;25.67;33.32
6453;BME280;3259;51.080;13.712;2023-04-24T10:30:02;99167.06;;;25.75;33.46
6453;BME280;3259;51.080;13.712;2023-04-24T10:32:51;99168.56;;;25.83;33.54
6453;BME280;3259;51.080;13.712;2023-04-24T10:35:42;99159.88;;;25.87;33.47
6453;BME280;3259;51.080;13.712;2023-04-24T10:38:31;99166.72;;;25.94;33.37
6453;BME280;3259;51.080;13.712;2023-04-24T10:41:20;99154.91;;;25.91;33.02
6453;BME280;3259;51.080;13.712;2023-04-24T10:44:12;99160.09;;;25.86;33.10
6453;BME280;3259;51.080;13.712;2023-04-24T10:47:01;99160.69;;;25.88;33.02
6453;BME280;3259;51.080;13.712;2023-04-24T10:49:51;99161.25;;;25.89;32.97
6453;BME280;3259;51.080;13.712;2023-04-24T10:52:46;99159.50;;;25.83;32.82
6453;BME280;3259;51.080;13.712;2023-04-24T10:55:46;99171.81;;;25.84;33.09
6453;BME280;3259;51.080;13.712;2023-04-24T10:58:40;99173.31;;;25.81;33.23
6453;BME280;3259;51.080;13.712;2023-04-24T11:01:32;99165.75;;;25.77;33.34
6453;BME280;3259;51.080;13.712;2023-04-24T11:04:32;99161.50;;;25.88;32.87
6453;BME280;3259;51.080;13.712;2023-04-24T11:07:22;99161.94;;;25.85;32.74
6453;BME280;3259;51.080;13.712;2023-04-24T11:10:25;99160.09;;;25.86;32.98
6453;BME280;3259;51.080;13.712;2023-04-24T11:13:17;99163.22;;;25.83;32.99
6453;BME280;3259;51.080;13.712;2023-04-24T11:16:12;99171.44;;;25.81;33.24
6453;BME280;3259;51.080;13.712;2023-04-24T11:19:05;99166.81;;;25.77;33.33
6453;BME280;3259;51.080;13.712;2023-04-24T11:21:56;99180.03;;;25.72;33.07
6453;BME280;3259;51.080;13.712;2023-04-24T11:24:49;99179.72;;;25.80;33.12
6453;BME280;3259;51.080;13.712;2023-04-24T11:27:41;99180.75;;;25.79;33.19
6453;BME280;3259;51.080;13.712;2023-04-24T11:30:31;99179.47;;;25.70;32.95
6453;BME280;3259;51.080;13.712;2023-04-24T11:33:22;99180.97;;;25.77;32.87
6453;BME280;3259;51.080;13.712;2023-04-24T11:36:12;99180.97;;;25.77;33.12
6453;BME280;3259;51.080;13.712;2023-04-24T11:39:01;99173.66;;;25.73;32.85
6453;BME280;3259;51.080;13.712;2023-04-24T11:41:50;99175.28;;;25.74;32.80
6453;BME280;3259;51.080;13.712;2023-04-24T11:44:41;99170.25;;;25.66;32.84
6453;BME280;3259;51.080;13.712;2023-04-24T11:47:30;99175.03;;;25.64;33.29
6453;BME280;3259;51.080;13.712;2023-04-24T11:50:23;99173.97;;;25.65;33.13
6453;BME280;3259;51.080;13.712;2023-04-24T11:53:14;99176.31;;;25.61;33.52
6453;BME280;3259;51.080;13.712;2023-04-24T11:56:03;99171.78;;;25.62;33.22
6453;BME280;3259;51.080;13.712;2023-04-24T11:58:52;99178.28;;;25.66;33.49
6453;BME280;3259;51.080;13.712;2023-04-24T12:01:44;99178.38;;;25.59;33.62
6453;BME280;3259;51.080;13.712;2023-04-24T12:04:43;99182.00;;;25.65;33.68
6453;BME280;3259;51.080;13.712;2023-04-24T12:07:40;99192.94;;;25.75;33.31
6453;BME280;3259;51.080;13.712;2023-04-24T12:10:32;99186.44;;;25.71;32.73
6453;BME280;3259;51.080;13.712;2023-04-24T12:13:21;99180.03;;;25.72;32.66
6453;BME280;3259;51.080;13.712;2023-04-24T12:16:10;99191.88;;;25.64;32.48
6453;BME280;3259;51.080;13.712;2023-04-24T12:18:58;99182.94;;;25.59;32.70
6453;BME280;3259;51.080;13.712;2023-04-24T12:21:59;99180.63;;;25.62;32.75
6453;BME280;3259;51.080;13.712;2023-04-24T12:25:02;99176.75;;;25.58;32.60
6453;BME280;3259;51.080;13.712;2023-04-24T12:27:55;99177.59;;;25.59;32.81
6453;BME280;3259;51.080;13.712;2023-04-24T12:30:47;99182.94;;;25.59;32.54
6453;BME280;3259;51.080;13.712;2023-04-24T12:33:37;99184.34;;;25.61;32.24
6453;BME280;3259;51.080;13.712;2023-04-24T12:36:25;99176.66;;;25.65;31.87
6453;BME280;3259;51.080;13.712;2023-04-24T12:39:15;99184.81;;;25.70;31.42
6453;BME280;3259;51.080;13.712;2023-04-24T12:42:04;99192.25;;;25.68;31.00
6453;BME280;3259;51.080;13.712;2023-04-24T12:44:56;99190.13;;;25.58;31.02
6453;BME280;3259;51.080;13.712;2023-04-24T12:47:48;99206.88;;;25.65;30.78
6453;BME280;3259;51.080;13.712;2023-04-24T12:50:38;99205.91;;;25.60;30.78
6453;BME280;3259;51.080;13.712;2023-04-24T12:53:28;99206.50;;;25.62;30.65
6453;BME280;3259;51.080;13.712;2023-04-24T12:56:18;99204.28;;;25.59;30.54
6453;BME280;3259;51.080;13.712;2023-04-24T12:59:07;99192.09;;;25.51;30.66
6453;BME280;3259;51.080;13.712;2023-04-24T13:01:57;99199.84;;;25.53;30.35
6453;BME280;3259;51.080;13.712;2023-04-24T13:04:46;99192.19;;;25.45;31.20
6453;BME280;3259;51.080;13.712;2023-04-24T13:07:35;99185.75;;;25.34;31.29
6453;BME280;3259;51.080;13.712;2023-04-24T13:10:24;99188.91;;;25.43;31.06
6453;BME280;3259;51.080;13.712;2023-04-24T13:13:12;99179.53;;;25.40;30.32
6453;BME280;3259;51.080;13.712;2023-04-24T13:16:01;99179.63;;;25.34;29.54
6453;BME280;3259;51.080;13.712;2023-04-24T13:18:51;99196.69;;;25.15;29.80
6453;BME280;3259;51.080;13.712;2023-04-24T13:21:39;99185.56;;;25.18;29.69
6453;BME280;3259;51.080;13.712;2023-04-24T13:24:28;99192.28;;;25.09;29.67
6453;BME280;3259;51.080;13.712;2023-04-24T13:27:18;99189.72;;;25.14;29.83
6453;BME280;3259;51.080;13.712;2023-04-24T13:30:07;99196.13;;;25.13;29.99
6453;BME280;3259;51.080;13.712;2023-04-24T13:32:56;99204.22;;;25.06;29.45
6453;BME280;3259;51.080;13.712;2023-04-24T13:35:46;99187.84;;;25.03;29.02
6453;BME280;3259;51.080;13.712;2023-04-24T13:38:35;99196.28;;;25.00;29.11
6453;BME280;3259;51.080;13.712;2023-04-24T13:41:23;99194.50;;;24.94;29.31
6453;BME280;3259;51.080;13.712;2023-04-24T13:44:12;99190.81;;;24.95;28.99
6453;BME280;3259;51.080;13.712;2023-04-24T13:47:01;99189.19;;;24.94;28.52
6453;BME280;3259;51.080;13.712;2023-04-24T13:49:49;99176.28;;;24.91;27.90
6453;BME280;3259;51.080;13.712;2023-04-24T13:52:39;99184.84;;;24.81;27.89
6453;BME280;3259;51.080;13.712;2023-04-24T13:55:28;99186.25;;;24.84;27.68
6453;BME280;3259;51.080;13.712;2023-04-24T13:58:17;99201.56;;;24.88;27.48
6453;BME280;3259;51.080;13.712;2023-04-24T14:01:06;99181.06;;;24.71;27.82
6453;BME280;3259;51.080;13.712;2023-04-24T14:03:55;99178.41;;;24.71;28.16
6453;BME280;3259;51.080;13.712;2023-04-24T14:06:44;99170.56;;;24.76;28.80
6453;BME280;3259;51.080;13.712;2023-04-24T14:09:34;99172.38;;;24.93;29.06
6453;BME280;3259;51.080;13.712;2023-04-24T14:12:23;99181.16;;;25.12;28.76
6453;BME280;3259;51.080;13.712;2023-04-24T14:15:12;99173.09;;;25.30;28.70
6453;BME280;3259;51.080;13.712;2023-04-24T14:18:02;99174.66;;;25.37;28.36
6453;BME280;3259;51.080;13.712;2023-04-24T14:20:52;99175.97;;;25.58;28.28
6453;BME280;3259;51.080;13.712;2023-04-24T14:23:40;99164.59;;;25.62;28.24
6453;BME280;3259;51.080;13.712;2023-04-24T14:26:31;99165.97;;;25.65;28.17
6453;BME280;3259;51.080;13.712;2023-04-24T14:29:20;99166.22;;;25.63;28.10
6453;BME280;3259;51.080;13.712;2023-04-24T14:32:08;99163.91;;;25.67;28.47
6453;BME280;3259;51.080;13.712;2023-04-24T14:34:57;99161.44;;;25.77;27.79
6453;BME280;3259;51.080;13.712;2023-04-24T14:37:45;99167.22;;;25.92;27.52
6453;BME280;3259;51.080;13.712;2023-04-24T14:40:35;99172.09;;;25.94;28.04
6453;BME280;3259;51.080;13.712;2023-04-24T14:43:45;99172.88;;;25.95;28.10
6453;BME280;3259;51.080;13.712;2023-04-24T14:46:34;99167.66;;;25.88;27.86
6453;BME280;3259;51.080;13.712;2023-04-24T14:49:23;99171.72;;;25.91;27.61
6453;BME280;3259;51.080;13.712;2023-04-24T14:52:11;99177.66;;;26.04;27.56
6453;BME280;3259;51.080;13.712;2023-04-24T14:55:00;99180.56;;;26.14;27.58
6453;BME280;3259;51.080;13.712;2023-04-24T14:57:49;99183.69;;;26.11;27.63
6453;BME280;3259;51.080;13.712;2023-04-24T15:00:39;99174.97;;;26.16;27.39
6453;BME280;3259;51.080;13.712;2023-04-24T15:03:27;99182.50;;;26.19;27.51
6453;BME280;3259;51.080;13.712;2023-04-24T15:06:17;99187.41;;;26.22;27.61
6453;BME280;3259;51.080;13.712;2023-04-24T15:09:05;99184.75;;;26.22;27.52
6453;BME280;3259;51.080;13.712;2023-04-24T15:11:54;99179.53;;;26.15;27.59